Time;durP1;ratioP1;P1;durP2;ratioP2;P2;SDS_P1;SDS_P2;PMS_P1;PMS_P2;Temp;Humidity;BMP_temperature;BMP_pressure;BME280_temperature;BME280_humidity;BME280_pressure;Samples;Min_cycle;Max_cycle;Signal;HPM_P1;HPM_P2
2021/07/16 00:00:41;;;;;;;;;;;;;;;17.56;92.76;99506.25;4973726;28;19921;-62
2021/07/16 00:03:06;;;;;;;;;;;;;;;17.55;92.64;99504.63;4974112;28;20292;-62
2021/07/16 00:05:35;;;;;;;;;;;;;;;17.61;92.66;99508.13;4973653;28;19925;-62
2021/07/16 00:08:00;;;;;;;;;;;;;;;17.61;92.64;99510.81;4974029;28;19920;-62
2021/07/16 00:10:25;;;;;;;;;;;;;;;17.59;92.46;99507.59;4973528;28;20001;-62
2021/07/16 00:12:51;;;;;;;;;;;;;;;17.59;92.61;99518.44;4973830;28;19929;-62
2021/07/16 00:15:16;;;;;;;;;;;;;;;17.59;92.46;99518.44;4973705;28;19918;-62
2021/07/16 00:17:42;;;;;;;;;;;;;;;17.60;92.34;99514.63;4972569;28;19921;-62
2021/07/16 00:20:07;;;;;;;;;;;;;;;17.60;92.83;99525.47;4973248;28;20276;-62
2021/07/16 00:22:32;;;;;;;;;;;;;;;17.62;92.47;99517.84;4973788;28;19914;-62
2021/07/16 00:24:58;;;;;;;;;;;;;;;17.63;92.25;99514.88;4973785;28;19914;-62
2021/07/16 00:27:26;;;;;;;;;;;;;;;17.69;92.18;99523.78;4973274;28;19918;-62
2021/07/16 00:29:51;;;;;;;;;;;;;;;17.66;92.12;99521.63;4974085;28;19914;-62
2021/07/16 00:32:16;;;;;;;;;;;;;;;17.65;92.10;99507.28;4973117;28;20296;-62
2021/07/16 00:34:42;;;;;;;;;;;;;;;17.68;92.19;99522.16;4973590;28;19981;-62
2021/07/16 00:37:07;;;;;;;;;;;;;;;17.70;91.81;99514.56;4973286;28;19925;-62
2021/07/16 00:39:33;;;;;;;;;;;;;;;17.72;91.90;99517.78;4973699;28;19976;-61
2021/07/16 00:41:58;;;;;;;;;;;;;;;17.77;91.58;99525.06;4973086;28;19918;-61
2021/07/16 00:44:24;;;;;;;;;;;;;;;17.76;91.76;99518.84;4973755;28;19914;-62
2021/07/16 00:46:49;;;;;;;;;;;;;;;17.73;91.63;99529.47;4975351;28;19980;-62
2021/07/16 00:49:14;;;;;;;;;;;;;;;17.66;92.11;99535.19;4975861;28;20286;-62
2021/07/16 00:51:40;;;;;;;;;;;;;;;17.64;92.09;99529.22;4976854;28;19953;-62
2021/07/16 00:54:05;;;;;;;;;;;;;;;17.70;91.88;99530.84;4977063;28;19925;-62
2021/07/16 00:56:30;;;;;;;;;;;;;;;17.63;92.29;99531.13;4976671;28;19949;-62
2021/07/16 00:58:55;;;;;;;;;;;;;;;17.58;92.30;99528.47;4975722;28;20026;-62
2021/07/16 01:01:21;;;;;;;;;;;;;;;17.58;92.61;99533.09;4975618;28;19918;-62
2021/07/16 01:03:47;;;;;;;;;;;;;;;17.57;92.47;99528.72;4976952;28;20350;-62
2021/07/16 01:06:12;;;;;;;;;;;;;;;17.66;92.36;99535.19;4975179;28;19918;-62
2021/07/16 01:08:38;;;;;;;;;;;;;;;17.62;92.19;99526.81;4976798;28;19909;-62
2021/07/16 01:11:03;;;;;;;;;;;;;;;17.69;91.97;99538.13;4976500;28;19918;-62
2021/07/16 01:13:28;;;;;;;;;;;;;;;17.63;92.10;99541.19;4975935;28;19958;-62
2021/07/16 01:15:55;;;;;;;;;;;;;;;17.71;92.27;99548.69;4975082;28;19917;-62
2021/07/16 01:18:20;;;;;;;;;;;;;;;17.74;91.98;99553.56;4976763;28;19914;-62
2021/07/16 01:20:45;;;;;;;;;;;;;;;17.59;92.49;99549.03;4974952;28;19922;-62
2021/07/16 01:23:18;;;;;;;;;;;;;;;17.56;92.94;99548.81;4976418;28;19914;-62
2021/07/16 01:25:43;;;;;;;;;;;;;;;17.50;93.22;99549.91;4976012;28;19918;-62
2021/07/16 01:28:08;;;;;;;;;;;;;;;17.51;93.25;99551.53;4976246;28;19917;-62
2021/07/16 01:30:34;;;;;;;;;;;;;;;17.48;93.12;99544.78;4975875;28;19918;-62
2021/07/16 01:33:02;;;;;;;;;;;;;;;17.53;93.13;99552.09;4976144;28;19920;-62
2021/07/16 01:35:27;;;;;;;;;;;;;;;17.48;93.43;99543.97;4975803;28;19914;-62
2021/07/16 01:37:53;;;;;;;;;;;;;;;17.50;92.83;99550.75;4978626;28;19913;-62
2021/07/16 01:40:18;;;;;;;;;;;;;;;17.52;92.81;99558.56;4976111;28;20253;-62
2021/07/16 01:42:51;;;;;;;;;;;;;;;17.49;93.35;99545.59;4976335;28;19920;-62
2021/07/16 01:45:35;;;;;;;;;;;;;;;17.42;93.75;99554.03;4976056;28;19918;-62
2021/07/16 01:48:08;;;;;;;;;;;;;;;17.49;93.19;99548.31;4976085;28;19918;-62
2021/07/16 01:50:33;;;;;;;;;;;;;;;17.41;93.55;99538.88;4975730;28;19917;-61
2021/07/16 01:52:58;;;;;;;;;;;;;;;17.43;93.15;99542.91;4976298;28;20399;-62
2021/07/16 01:55:24;;;;;;;;;;;;;;;17.41;93.20;99550.50;4975659;28;19925;-62
2021/07/16 01:57:50;;;;;;;;;;;;;;;17.35;93.44;99548.94;4975085;28;20356;-62
2021/07/16 02:00:17;;;;;;;;;;;;;;;17.41;93.35;99553.22;4975554;28;19914;-62
2021/07/16 02:02:49;;;;;;;;;;;;;;;17.37;93.19;99544.03;4975820;28;19925;-62
2021/07/16 02:05:15;;;;;;;;;;;;;;;17.36;93.34;99549.72;4975371;28;20013;-61
2021/07/16 02:07:41;;;;;;;;;;;;;;;17.35;93.32;99545.41;4975980;28;19971;-62
2021/07/16 02:10:06;;;;;;;;;;;;;;;17.29;93.81;99552.75;4974329;28;20438;-62
2021/07/16 02:12:31;;;;;;;;;;;;;;;17.28;93.38;99544.91;4975697;28;19993;-62
2021/07/16 02:14:57;;;;;;;;;;;;;;;17.34;93.33;99558.13;4975616;28;19910;-62
2021/07/16 02:17:22;;;;;;;;;;;;;;;17.29;92.98;99554.63;4975210;28;19925;-62
2021/07/16 02:19:48;;;;;;;;;;;;;;;17.34;92.96;99558.13;4975622;28;19914;-62
2021/07/16 02:22:13;;;;;;;;;;;;;;;17.26;93.32;99553.31;4975007;28;19925;-62
2021/07/16 02:24:38;;;;;;;;;;;;;;;17.28;93.43;99550.31;4975510;28;19914;-62
2021/07/16 02:27:04;;;;;;;;;;;;;;;17.24;93.57;99558.19;4975034;28;19914;-62
2021/07/16 02:29:30;;;;;;;;;;;;;;;17.28;93.15;99556.53;4975324;28;19914;-62
2021/07/16 02:31:55;;;;;;;;;;;;;;;17.20;93.37;99560.66;4975085;28;20354;-62
2021/07/16 02:34:20;;;;;;;;;;;;;;;17.20;93.70;99555.22;4975321;28;20328;-62
2021/07/16 02:36:45;;;;;;;;;;;;;;;17.23;93.14;99565.50;4973644;28;19928;-62
2021/07/16 02:39:11;;;;;;;;;;;;;;;17.28;93.07;99563.88;4975190;28;19914;-62
2021/07/16 02:41:36;;;;;;;;;;;;;;;17.23;93.28;99567.41;4974793;28;19941;-62
2021/07/16 02:44:01;;;;;;;;;;;;;;;17.24;93.21;99560.88;4975025;28;20327;-62
2021/07/16 02:46:26;;;;;;;;;;;;;;;17.26;93.00;99564.13;4974693;28;19925;-62
2021/07/16 02:48:52;;;;;;;;;;;;;;;17.29;92.76;99569.00;4973752;28;19918;-62
2021/07/16 02:51:17;;;;;;;;;;;;;;;17.22;92.99;99568.47;4974736;28;19922;-62
2021/07/16 02:53:42;;;;;;;;;;;;;;;17.21;93.37;99573.09;4974932;28;19914;-62
2021/07/16 02:56:07;;;;;;;;;;;;;;;17.24;93.42;99575.25;4974798;28;19972;-61
2021/07/16 02:58:33;;;;;;;;;;;;;;;17.20;93.14;99571.47;4974888;28;19914;-62
2021/07/16 03:00:58;;;;;;;;;;;;;;;17.26;93.36;99580.38;4974574;28;19918;-62
2021/07/16 03:03:23;;;;;;;;;;;;;;;17.28;92.78;99582.84;4974898;28;20353;-62
2021/07/16 03:05:48;;;;;;;;;;;;;;;17.16;93.41;99591.28;4974271;28;19958;-61
2021/07/16 03:08:14;;;;;;;;;;;;;;;17.14;93.29;99582.59;4974603;28;19914;-62
2021/07/16 03:10:42;;;;;;;;;;;;;;;17.16;93.17;99586.66;4974299;28;19918;-62
2021/07/16 03:13:10;;;;;;;;;;;;;;;17.10;93.48;99578.81;4974659;28;19914;-62
2021/07/16 03:15:38;;;;;;;;;;;;;;;17.08;93.07;99579.13;4974488;28;19918;-62
2021/07/16 03:18:04;;;;;;;;;;;;;;;17.10;93.02;99576.13;4974555;28;20392;-62
2021/07/16 03:20:30;;;;;;;;;;;;;;;17.07;93.36;99580.19;4974361;28;19957;-61
2021/07/16 03:22:55;;;;;;;;;;;;;;;17.05;93.58;99582.38;4974469;28;19914;-62
2021/07/16 03:25:21;;;;;;;;;;;;;;;17.03;93.30;99582.66;4974138;28;19925;-62
2021/07/16 03:27:46;;;;;;;;;;;;;;;17.07;93.45;99582.09;4974455;28;20436;-62
2021/07/16 03:30:13;;;;;;;;;;;;;;;17.12;92.99;99577.47;4974125;28;20056;-62
2021/07/16 03:32:39;;;;;;;;;;;;;;;17.10;93.35;99585.06;4974444;28;19914;-61
2021/07/16 03:35:05;;;;;;;;;;;;;;;17.08;93.35;99594.56;4974273;28;19914;-62
2021/07/16 03:37:30;;;;;;;;;;;;;;;17.04;93.45;99595.09;4974594;28;20317;-62
2021/07/16 03:39:55;;;;;;;;;;;;;;;16.99;93.32;99599.72;4973040;28;20012;-62
2021/07/16 03:42:24;;;;;;;;;;;;;;;16.98;93.73;99596.19;4976301;28;20046;-62
2021/07/16 03:44:49;;;;;;;;;;;;;;;16.93;93.79;99604.34;4974167;28;19921;-62
2021/07/16 03:47:14;;;;;;;;;;;;;;;16.96;93.55;99605.69;4973677;28;19922;-61
2021/07/16 03:49:40;;;;;;;;;;;;;;;16.90;93.96;99610.31;4974201;28;20493;-62
2021/07/16 03:52:05;;;;;;;;;;;;;;;16.91;93.73;99606.50;4972640;28;20005;-61
2021/07/16 03:54:30;;;;;;;;;;;;;;;16.91;93.95;99611.94;4974216;28;20272;-62
2021/07/16 03:56:56;;;;;;;;;;;;;;;16.93;93.36;99607.06;4973885;28;19926;-62
2021/07/16 03:59:21;;;;;;;;;;;;;;;16.86;93.60;99614.66;4974412;28;19921;-62
2021/07/16 04:01:48;;;;;;;;;;;;;;;16.91;93.34;99611.94;4973785;28;19920;-62
2021/07/16 04:04:14;;;;;;;;;;;;;;;16.80;93.60;99610.34;4973057;28;19921;-62
2021/07/16 04:06:39;;;;;;;;;;;;;;;16.84;93.86;99618.72;4973824;28;19918;-61
2021/07/16 04:09:26;;;;;;;;;;;;;;;16.91;93.61;99617.34;4974121;28;19910;-62
2021/07/16 04:12:02;;;;;;;;;;;;;;;16.86;93.43;99616.56;4973774;28;19964;-61
2021/07/16 04:14:29;;;;;;;;;;;;;;;16.81;93.48;99614.66;4973990;28;19922;-62
2021/07/16 04:16:54;;;;;;;;;;;;;;;16.85;93.16;99618.44;4973648;28;19922;-62
2021/07/16 04:19:19;;;;;;;;;;;;;;;16.84;93.23;99622.22;4974458;28;20391;-62
2021/07/16 04:21:44;;;;;;;;;;;;;;;16.83;93.53;99627.94;4977355;28;19918;-62
2021/07/16 04:24:10;;;;;;;;;;;;;;;16.82;93.98;99627.09;4978085;28;19920;-62
2021/07/16 04:26:38;;;;;;;;;;;;;;;16.75;93.75;99623.84;4977396;28;20622;-62
2021/07/16 04:29:03;;;;;;;;;;;;;;;16.63;94.19;99628.75;4977765;28;20284;-62
2021/07/16 04:31:28;;;;;;;;;;;;;;;16.58;94.52;99630.38;4977245;28;19925;-61
2021/07/16 04:33:53;;;;;;;;;;;;;;;16.51;95.13;99627.13;4977691;28;19914;-62
2021/07/16 04:36:19;;;;;;;;;;;;;;;16.55;94.59;99630.09;4977086;28;19997;-61
2021/07/16 04:38:44;;;;;;;;;;;;;;;16.49;94.61;99639.28;4976515;28;19914;-62
2021/07/16 04:41:09;;;;;;;;;;;;;;;16.51;94.94;99646.06;4976949;28;20009;-61
2021/07/16 04:43:34;;;;;;;;;;;;;;;16.52;94.94;99647.66;4977524;28;19921;-62
2021/07/16 04:46:00;;;;;;;;;;;;;;;16.50;94.17;99644.44;4976944;28;19977;-62
2021/07/16 04:48:25;;;;;;;;;;;;;;;16.37;94.14;99647.66;4977239;28;19925;-61
2021/07/16 04:50:50;;;;;;;;;;;;;;;16.29;94.29;99642.81;4977147;28;19922;-62
2021/07/16 04:53:15;;;;;;;;;;;;;;;16.33;94.32;99646.59;4977435;28;20312;-61
2021/07/16 04:55:41;;;;;;;;;;;;;;;16.38;93.61;99641.19;4976824;28;19918;-62
2021/07/16 04:58:07;;;;;;;;;;;;;;;16.20;93.97;99645.25;4977162;28;19960;-62
2021/07/16 05:00:33;;;;;;;;;;;;;;;16.26;93.95;99648.75;4976793;28;19918;-62
2021/07/16 05:02:58;;;;;;;;;;;;;;;16.27;93.43;99644.97;4976935;28;19921;-62
2021/07/16 05:05:23;;;;;;;;;;;;;;;16.21;93.59;99646.88;4975357;28;19922;-62
2021/07/16 05:07:51;;;;;;;;;;;;;;;16.22;93.47;99637.66;4975835;28;19914;-62
2021/07/16 05:10:19;;;;;;;;;;;;;;;16.18;93.61;99642.81;4976756;28;19996;-62
2021/07/16 05:12:45;;;;;;;;;;;;;;;16.20;93.38;99649.81;4976897;28;19933;-61
2021/07/16 05:15:11;;;;;;;;;;;;;;;16.14;93.25;99640.91;4976455;28;19917;-61
2021/07/16 05:17:36;;;;;;;;;;;;;;;16.18;93.26;99647.41;4976742;28;19957;-61
2021/07/16 05:20:03;;;;;;;;;;;;;;;16.21;92.76;99651.47;4976401;28;19914;-61
2021/07/16 05:22:28;;;;;;;;;;;;;;;16.12;92.97;99654.69;4976563;28;19957;-61
2021/07/16 05:24:53;;;;;;;;;;;;;;;16.11;93.39;99652.25;4976651;28;19961;-61
2021/07/16 05:27:18;;;;;;;;;;;;;;;16.16;93.17;99653.06;4976413;28;19914;-61
2021/07/16 05:29:44;;;;;;;;;;;;;;;16.22;92.45;99659.28;4976850;28;19921;-62
2021/07/16 05:32:09;;;;;;;;;;;;;;;16.27;91.98;99662.00;4975017;28;20361;-61
2021/07/16 05:34:37;;;;;;;;;;;;;;;16.29;91.77;99667.16;4979048;28;19964;-62
2021/07/16 05:37:05;;;;;;;;;;;;;;;16.27;92.10;99661.19;4976331;28;19922;-62
2021/07/16 05:39:30;;;;;;;;;;;;;;;16.28;91.81;99669.06;4976599;28;20361;-61
2021/07/16 05:41:56;;;;;;;;;;;;;;;16.23;92.21;99665.53;4976108;28;19945;-62
2021/07/16 05:44:21;;;;;;;;;;;;;;;16.21;91.75;99662.28;4976723;28;20273;-61
2021/07/16 05:46:46;;;;;;;;;;;;;;;16.14;92.02;99668.75;4975973;28;20380;-62
2021/07/16 05:49:11;;;;;;;;;;;;;;;16.14;91.98;99674.16;4976390;28;19918;-61
2021/07/16 05:51:36;;;;;;;;;;;;;;;16.15;92.04;99675.81;4976117;28;19973;-62
2021/07/16 05:54:02;;;;;;;;;;;;;;;16.08;92.08;99675.25;4976575;28;19914;-61
2021/07/16 05:56:27;;;;;;;;;;;;;;;16.07;92.11;99683.59;4976080;28;20351;-61
2021/07/16 05:58:52;;;;;;;;;;;;;;;16.10;92.54;99680.38;4976350;28;19968;-61
2021/07/16 06:01:18;;;;;;;;;;;;;;;15.99;93.08;99686.84;4975937;28;20466;-61
2021/07/16 06:03:43;;;;;;;;;;;;;;;16.06;92.67;99688.22;4976118;28;19968;-61
2021/07/16 06:06:08;;;;;;;;;;;;;;;16.10;91.95;99689.31;4975801;28;19925;-61
2021/07/16 06:08:33;;;;;;;;;;;;;;;16.00;92.68;99689.28;4976062;28;20009;-61
2021/07/16 06:10:59;;;;;;;;;;;;;;;16.01;92.60;99696.31;4974405;28;19927;-61
2021/07/16 06:13:25;;;;;;;;;;;;;;;15.98;92.59;99707.66;4976027;28;20005;-63
2021/07/16 06:15:50;;;;;;;;;;;;;;;15.99;91.94;99706.56;4975650;28;20005;-61
2021/07/16 06:18:16;;;;;;;;;;;;;;;15.99;91.95;99705.78;4974760;28;20328;-61
2021/07/16 06:20:44;;;;;;;;;;;;;;;15.98;91.57;99707.66;4975471;28;19965;-61
2021/07/16 06:23:10;;;;;;;;;;;;;;;16.01;91.60;99709.03;4975683;28;20331;-61
2021/07/16 06:25:35;;;;;;;;;;;;;;;16.10;90.85;99708.25;4975405;28;19922;-61
2021/07/16 06:28:01;;;;;;;;;;;;;;;16.12;90.61;99703.34;4975724;28;19914;-61
2021/07/16 06:30:27;;;;;;;;;;;;;;;16.16;90.26;99709.06;4975402;28;19918;-61
2021/07/16 06:32:52;;;;;;;;;;;;;;;16.15;90.00;99719.06;4975643;28;20284;-61
2021/07/16 06:35:17;;;;;;;;;;;;;;;16.20;90.00;99720.97;4975517;28;19921;-61
2021/07/16 06:37:43;;;;;;;;;;;;;;;16.25;89.54;99722.84;4975783;28;19914;-61
2021/07/16 06:40:08;;;;;;;;;;;;;;;16.14;89.63;99719.31;4975262;28;20008;-62
2021/07/16 06:42:33;;;;;;;;;;;;;;;16.09;89.84;99727.41;4975176;28;19914;-61
2021/07/16 06:44:59;;;;;;;;;;;;;;;16.05;90.24;99735.25;4975435;28;19914;-61
2021/07/16 06:47:24;;;;;;;;;;;;;;;16.07;89.90;99733.09;4974823;28;19945;-61
2021/07/16 06:49:49;;;;;;;;;;;;;;;16.12;89.48;99741.22;4975355;28;20009;-62
2021/07/16 06:52:15;;;;;;;;;;;;;;;16.15;89.05;99740.69;4974928;28;19973;-62
2021/07/16 06:54:40;;;;;;;;;;;;;;;16.27;88.89;99745.03;4975369;28;20279;-61
2021/07/16 06:57:05;;;;;;;;;;;;;;;16.28;88.66;99754.78;4974847;28;20092;-62
2021/07/16 06:59:30;;;;;;;;;;;;;;;16.26;88.15;99754.25;4975255;28;19918;-61
2021/07/16 07:01:56;;;;;;;;;;;;;;;16.21;88.95;99755.03;4974825;28;20392;-61
2021/07/16 07:04:21;;;;;;;;;;;;;;;16.16;88.97;99758.53;4974924;28;19914;-61
2021/07/16 07:06:46;;;;;;;;;;;;;;;16.30;88.41;99758.00;4974837;28;20403;-61
2021/07/16 07:09:11;;;;;;;;;;;;;;;16.25;88.33;99749.91;4975265;28;19914;-61
2021/07/16 07:11:37;;;;;;;;;;;;;;;16.44;87.79;99759.13;4974648;28;19972;-61
2021/07/16 07:14:02;;;;;;;;;;;;;;;16.39;87.92;99762.63;4973873;28;19914;-61
2021/07/16 07:16:27;;;;;;;;;;;;;;;16.42;88.25;99772.13;4973426;28;19972;-61
2021/07/16 07:18:55;;;;;;;;;;;;;;;16.51;87.17;99770.50;4974994;28;19921;-61
2021/07/16 07:21:24;;;;;;;;;;;;;;;16.61;86.94;99775.13;4974625;28;20276;-61
2021/07/16 07:23:49;;;;;;;;;;;;;;;16.61;87.01;99775.94;4974780;28;19914;-62
2021/07/16 07:26:14;;;;;;;;;;;;;;;16.55;87.01;99784.34;4974477;28;19925;-62
2021/07/16 07:28:39;;;;;;;;;;;;;;;16.52;87.55;99791.06;4974943;28;19941;-62
2021/07/16 07:31:05;;;;;;;;;;;;;;;16.55;87.08;99787.84;4974370;28;19926;-61
2021/07/16 07:33:30;;;;;;;;;;;;;;;16.76;86.07;99785.16;4975010;28;20009;-62
2021/07/16 07:35:56;;;;;;;;;;;;;;;16.90;86.01;99777.34;4974546;28;20468;-62
2021/07/16 07:38:21;;;;;;;;;;;;;;;16.99;85.33;99784.66;4977442;28;20287;-62
2021/07/16 07:40:46;;;;;;;;;;;;;;;16.93;85.16;99783.03;4974426;28;19914;-62
2021/07/16 07:43:12;;;;;;;;;;;;;;;16.91;85.60;99784.38;4974618;28;20254;-61
2021/07/16 07:45:37;;;;;;;;;;;;;;;16.96;85.20;99787.09;4974304;28;20013;-61
2021/07/16 07:48:02;;;;;;;;;;;;;;;16.92;84.91;99786.81;4974382;28;20214;-61
2021/07/16 07:50:28;;;;;;;;;;;;;;;17.08;84.45;99789.53;4974331;28;20324;-62
2021/07/16 07:52:53;;;;;;;;;;;;;;;17.20;83.65;99792.78;4974518;28;19914;-61
2021/07/16 07:55:19;;;;;;;;;;;;;;;17.43;82.50;99797.63;4976166;28;19910;-62
2021/07/16 07:57:44;;;;;;;;;;;;;;;17.36;82.54;99794.38;4978480;28;20427;-61
2021/07/16 08:00:11;;;;;;;;;;;;;;;17.36;82.69;99802.50;4978005;28;20016;-62
2021/07/16 08:02:36;;;;;;;;;;;;;;;17.23;82.56;99798.44;4978282;28;19918;-61
2021/07/16 08:05:01;;;;;;;;;;;;;;;17.12;83.62;99796.00;4978239;28;19981;-61
2021/07/16 08:07:26;;;;;;;;;;;;;;;17.18;83.31;99805.78;4978717;28;19914;-61
2021/07/16 08:09:52;;;;;;;;;;;;;;;16.92;84.31;99803.06;4978289;28;19969;-62
2021/07/16 08:12:17;;;;;;;;;;;;;;;16.88;84.60;99807.41;4977855;28;19920;-61
2021/07/16 08:14:42;;;;;;;;;;;;;;;16.81;85.28;99806.84;4978368;28;19914;-61
2021/07/16 08:17:07;;;;;;;;;;;;;;;16.74;85.81;99808.97;4977754;28;20484;-61
2021/07/16 08:19:34;;;;;;;;;;;;;;;16.85;85.04;99813.38;4978427;28;19914;-61
2021/07/16 08:22:00;;;;;;;;;;;;;;;16.80;85.12;99808.75;4977716;28;19926;-61
2021/07/16 08:24:25;;;;;;;;;;;;;;;16.93;84.58;99804.69;4978295;28;20312;-61
2021/07/16 08:26:50;;;;;;;;;;;;;;;17.04;83.80;99819.03;4976429;28;19918;-61
2021/07/16 08:29:16;;;;;;;;;;;;;;;16.96;83.82;99812.28;4978008;28;19924;-61
2021/07/16 08:31:41;;;;;;;;;;;;;;;17.00;84.19;99810.66;4977520;28;19972;-62
2021/07/16 08:34:07;;;;;;;;;;;;;;;16.85;83.98;99812.53;4977794;28;20356;-61
2021/07/16 08:36:32;;;;;;;;;;;;;;;16.95;83.96;99821.47;4977584;28;19918;-62
2021/07/16 08:38:57;;;;;;;;;;;;;;;16.99;83.87;99822.56;4977783;28;19914;-61
2021/07/16 08:41:23;;;;;;;;;;;;;;;17.04;83.05;99827.97;4977311;28;20283;-61
2021/07/16 08:43:48;;;;;;;;;;;;;;;16.85;84.22;99828.75;4977700;28;20016;-61
2021/07/16 08:46:13;;;;;;;;;;;;;;;17.00;83.94;99826.09;4977210;28;20292;-62
2021/07/16 08:48:40;;;;;;;;;;;;;;;17.28;82.70;99824.72;4977453;28;20002;-61
2021/07/16 08:51:05;;;;;;;;;;;;;;;17.57;81.68;99832.25;4977035;28;20074;-61
2021/07/16 08:53:32;;;;;;;;;;;;;;;17.37;82.06;99825.81;4977700;28;19918;-61
2021/07/16 08:55:58;;;;;;;;;;;;;;;17.46;81.74;99831.47;4977269;28;19922;-62
2021/07/16 08:58:23;;;;;;;;;;;;;;;17.63;81.13;99836.59;4977415;28;19960;-62
2021/07/16 09:00:49;;;;;;;;;;;;;;;17.48;81.56;99840.16;4976901;28;19918;-61
2021/07/16 09:03:14;;;;;;;;;;;;;;;17.55;81.45;99842.59;4976001;28;19921;-61
2021/07/16 09:05:43;;;;;;;;;;;;;;;17.23;82.46;99835.56;4976740;28;20017;-62
2021/07/16 09:08:11;;;;;;;;;;;;;;;17.17;82.96;99839.34;4977483;28;19964;-61
2021/07/16 09:10:38;;;;;;;;;;;;;;;16.91;83.68;99835.84;4976915;28;19922;-62
2021/07/16 09:13:08;;;;;;;;;;;;;;;16.78;84.11;99845.28;4975887;28;20423;-62
2021/07/16 09:15:33;;;;;;;;;;;;;;;16.66;84.98;99836.56;4976722;28;20423;-62
2021/07/16 09:18:10;;;;;;;;;;;;;;;16.66;84.90;99836.56;4977208;28;19997;-61
2021/07/16 09:20:35;;;;;;;;;;;;;;;16.67;84.72;99835.47;4976688;28;20004;-61
2021/07/16 09:23:26;;;;;;;;;;;;;;;16.92;83.50;99827.41;4976862;28;20393;-61
2021/07/16 09:26:09;;;;;;;;;;;;;;;16.85;83.93;99843.13;4973459;28;19918;-61
2021/07/16 09:28:35;;;;;;;;;;;;;;;16.78;84.43;99840.69;4977006;28;20292;-61
2021/07/16 09:31:08;;;;;;;;;;;;;;;16.95;83.74;99851.28;4976151;28;20001;-61
2021/07/16 09:33:39;;;;;;;;;;;;;;;16.75;84.48;99843.91;4977222;28;19941;-61
2021/07/16 09:36:04;;;;;;;;;;;;;;;16.89;83.99;99841.50;4976478;28;19968;-61
2021/07/16 09:38:30;;;;;;;;;;;;;;;16.77;83.68;99844.44;4976640;28;19914;-61
2021/07/16 09:40:56;;;;;;;;;;;;;;;16.51;85.57;99851.69;4976313;28;19921;-61
2021/07/16 09:43:24;;;;;;;;;;;;;;;16.70;84.70;99860.13;4978984;28;20423;-61
2021/07/16 09:45:52;;;;;;;;;;;;;;;16.81;84.61;99864.50;4976207;28;19926;-61
2021/07/16 09:48:20;;;;;;;;;;;;;;;16.58;85.12;99863.06;4976445;28;19971;-62
2021/07/16 09:50:45;;;;;;;;;;;;;;;16.58;85.55;99873.09;4976106;28;19918;-61
2021/07/16 09:53:14;;;;;;;;;;;;;;;16.36;86.54;99870.56;4975213;28;20049;-62
2021/07/16 09:55:41;;;;;;;;;;;;;;;16.39;86.17;99872.75;4975955;28;20380;-61
2021/07/16 09:58:06;;;;;;;;;;;;;;;16.54;85.56;99875.50;4976498;28;19999;-61
2021/07/16 10:00:32;;;;;;;;;;;;;;;16.29;86.63;99886.22;4974645;28;19957;-61
2021/07/16 10:02:58;;;;;;;;;;;;;;;16.33;86.76;99881.94;4976213;28;19974;-61
2021/07/16 10:05:23;;;;;;;;;;;;;;;16.33;86.45;99884.63;4975735;28;19941;-61
2021/07/16 10:07:49;;;;;;;;;;;;;;;16.35;85.88;99882.50;4976019;28;20360;-61
2021/07/16 10:10:15;;;;;;;;;;;;;;;16.20;87.05;99890.50;4975870;28;19918;-61
2021/07/16 10:12:41;;;;;;;;;;;;;;;16.24;86.37;99894.31;4976158;28;19910;-61
2021/07/16 10:15:08;;;;;;;;;;;;;;;16.43;85.58;99897.41;4975643;28;19948;-62
2021/07/16 10:17:33;;;;;;;;;;;;;;;16.40;85.42;99896.03;4975260;28;19910;-61
2021/07/16 10:19:58;;;;;;;;;;;;;;;16.51;85.11;99884.16;4974672;28;19993;-61
2021/07/16 10:22:23;;;;;;;;;;;;;;;16.46;85.56;99903.06;4975371;28;20431;-61
2021/07/16 10:24:49;;;;;;;;;;;;;;;16.24;86.38;99897.03;4976021;28;20376;-62
2021/07/16 10:27:14;;;;;;;;;;;;;;;16.30;86.62;99906.78;4975358;28;19925;-61
2021/07/16 10:29:42;;;;;;;;;;;;;;;16.15;86.55;99911.06;4975745;28;19914;-61
2021/07/16 10:32:08;;;;;;;;;;;;;;;16.07;87.05;99921.53;4975268;28;19918;-62
2021/07/16 10:34:34;;;;;;;;;;;;;;;16.20;86.51;99933.78;4975655;28;19929;-61
2021/07/16 10:37:02;;;;;;;;;;;;;;;16.28;86.19;99927.91;4975342;28;20312;-61
2021/07/16 10:39:47;;;;;;;;;;;;;;;16.20;87.02;99933.78;4975537;28;19914;-61
2021/07/16 10:42:28;;;;;;;;;;;;;;;16.43;85.90;99925.25;4975008;28;20049;-61
2021/07/16 10:44:54;;;;;;;;;;;;;;;16.36;85.34;99927.38;4975506;28;19914;-62
2021/07/16 10:47:35;;;;;;;;;;;;;;;16.55;85.14;99931.25;4974652;28;19976;-62
2021/07/16 10:50:00;;;;;;;;;;;;;;;16.52;85.08;99923.66;4975153;28;20318;-62
2021/07/16 10:52:45;;;;;;;;;;;;;;;16.48;85.45;99927.97;4975434;28;19942;-61
2021/07/16 10:55:11;;;;;;;;;;;;;;;16.59;83.76;99934.25;4974999;28;20017;-61
2021/07/16 10:57:43;;;;;;;;;;;;;;;16.71;83.56;99934.03;4975157;28;19937;-61
2021/07/16 11:00:09;;;;;;;;;;;;;;;16.84;83.25;99933.53;4975024;28;19913;-61
2021/07/16 11:02:37;;;;;;;;;;;;;;;16.85;82.98;99939.75;4975167;28;20357;-61
2021/07/16 11:05:23;;;;;;;;;;;;;;;16.81;82.86;99943.00;4973509;28;19944;-61
2021/07/16 11:07:54;;;;;;;;;;;;;;;16.80;82.52;99940.59;4974864;28;19960;-61
2021/07/16 11:10:38;;;;;;;;;;;;;;;16.85;82.24;99947.88;4974627;28;20353;-61
2021/07/16 11:13:22;;;;;;;;;;;;;;;17.02;82.01;99943.06;4974950;28;19940;-61
2021/07/16 11:15:47;;;;;;;;;;;;;;;16.91;82.50;99952.25;4974418;28;20000;-61
2021/07/16 11:18:25;;;;;;;;;;;;;;;16.73;83.72;99961.63;4974725;28;19963;-61
2021/07/16 11:20:50;;;;;;;;;;;;;;;16.69;83.88;99966.75;4974597;28;19918;-61
2021/07/16 11:23:19;;;;;;;;;;;;;;;16.65;84.62;99965.69;4975008;28;20265;-61
2021/07/16 11:25:44;;;;;;;;;;;;;;;16.70;83.79;99967.56;4974396;28;20412;-61
2021/07/16 11:28:10;;;;;;;;;;;;;;;16.63;84.64;99973.25;4974743;28;19914;-61
2021/07/16 11:30:35;;;;;;;;;;;;;;;16.54;84.28;99972.91;4974297;28;20335;-61
2021/07/16 11:33:01;;;;;;;;;;;;;;;16.58;84.83;99976.72;4974607;28;19921;-61
2021/07/16 11:35:26;;;;;;;;;;;;;;;16.73;83.94;99969.75;4974471;28;19941;-60
2021/07/16 11:37:52;;;;;;;;;;;;;;;16.87;82.67;99970.91;4974592;28;20380;-61
2021/07/16 11:40:18;;;;;;;;;;;;;;;16.96;82.18;99971.22;4974411;28;19914;-61
2021/07/16 11:42:47;;;;;;;;;;;;;;;17.16;81.51;99965.03;4974668;28;20041;-60
2021/07/16 11:45:19;;;;;;;;;;;;;;;17.24;81.09;99957.19;4972823;28;19914;-61
2021/07/16 11:47:44;;;;;;;;;;;;;;;17.21;81.06;99962.34;4974361;28;19925;-60
2021/07/16 11:50:10;;;;;;;;;;;;;;;17.29;80.45;99961.00;4972936;28;19914;-61
2021/07/16 11:52:35;;;;;;;;;;;;;;;17.18;80.75;99958.28;4976386;28;19917;-61
2021/07/16 11:55:07;;;;;;;;;;;;;;;17.66;78.62;99958.03;4974354;28;19922;-61
2021/07/16 11:57:32;;;;;;;;;;;;;;;17.60;78.43;99956.41;4974563;28;20296;-60
2021/07/16 11:59:57;;;;;;;;;;;;;;;17.96;77.99;99957.22;4975062;28;19921;-61
2021/07/16 12:02:23;;;;;;;;;;;;;;;18.46;75.79;99958.19;4974315;28;20339;-60
2021/07/16 12:04:49;;;;;;;;;;;;;;;18.52;74.69;99950.81;4974574;28;19914;-61
2021/07/16 12:07:15;;;;;;;;;;;;;;;18.68;73.58;99957.03;4973952;28;19997;-61
2021/07/16 12:09:42;;;;;;;;;;;;;;;18.52;74.33;99958.97;4974313;28;19968;-61
2021/07/16 12:12:13;;;;;;;;;;;;;;;18.49;73.98;99944.06;4973837;28;20339;-61
2021/07/16 12:14:47;;;;;;;;;;;;;;;18.48;74.61;99957.91;4974215;28;19922;-61
2021/07/16 12:17:13;;;;;;;;;;;;;;;18.46;74.72;99960.09;4973943;28;19922;-63
2021/07/16 12:19:54;;;;;;;;;;;;;;;18.54;73.95;99962.22;4974153;28;20005;-61
2021/07/16 12:22:23;;;;;;;;;;;;;;;18.73;73.20;99963.22;4971799;28;19918;-61
2021/07/16 12:24:49;;;;;;;;;;;;;;;18.58;73.77;99957.06;4974223;28;19926;-61
2021/07/16 12:27:14;;;;;;;;;;;;;;;18.53;73.57;99966.84;4972595;28;19925;-61
2021/07/16 12:29:39;;;;;;;;;;;;;;;18.57;73.90;99969.84;4974255;28;19937;-61
2021/07/16 12:32:05;;;;;;;;;;;;;;;18.69;73.25;99970.31;4973949;28;19973;-61
2021/07/16 12:34:30;;;;;;;;;;;;;;;18.59;73.99;99970.34;4974529;28;19961;-61
2021/07/16 12:37:25;;;;;;;;;;;;;;;18.06;76.02;99964.53;4973741;28;20467;-61
2021/07/16 12:40:00;;;;;;;;;;;;;;;18.28;75.46;99962.31;4969469;28;19996;-61
2021/07/16 12:42:25;;;;;;;;;;;;;;;18.42;75.37;99965.28;4976987;28;20436;-61
2021/07/16 12:45:05;;;;;;;;;;;;;;;18.46;74.27;99966.31;4977840;28;19997;-61